Time;durP1;ratioP1;P1;durP2;ratioP2;P2;SDS_P1;SDS_P2;PMS_P1;PMS_P2;Temp;Humidity;BMP_temperature;BMP_pressure;BME280_temperature;BME280_humidity;BME280_pressure;Samples;Min_cycle;Max_cycle;Signal;HPM_P1;HPM_P2
2023/06/17 12:47:12;;;;;;;30.98;6.85;;;;;;;;;;5058424;27;20417;-55
2023/06/17 12:49:37;;;;;;;28.33;6.38;;;;;;;;;;5059608;28;20513;-58
2023/06/17 12:52:03;;;;;;;26.23;6.17;;;;;;;;;;5075671;28;20592;-59
2023/06/17 12:54:28;;;;;;;37.70;7.10;;;;;;;;;;5074949;28;20262;-60
2023/06/17 12:56:53;;;;;;;39.27;6.97;;;;;;;;;;5076496;28;20036;-59
2023/06/17 12:59:18;;;;;;;67.93;10.60;;;;;;;;;;5076528;28;20039;-58
2023/06/17 13:01:44;;;;;;;32.43;6.87;;;;;;;;;;5078113;28;20418;-58
2023/06/17 13:04:09;;;;;;;32.90;6.87;;;;;;;;;;5077261;28;20039;-59
2023/06/17 13:06:34;;;;;;;40.50;7.40;;;;;;;;;;5075899;28;20098;-59
2023/06/17 13:08:59;;;;;;;27.83;6.28;;;;;;;;;;5079461;28;20197;-58
2023/06/17 13:11:25;;;;;;;58.83;9.23;;;;;;;;;;5075792;28;20050;-59
2023/06/17 13:13:51;;;;;;;40.77;7.77;;;;;;;;;;5077582;28;20699;-59
2023/06/17 13:16:16;;;;;;;39.13;7.55;;;;;;;;;;5075248;28;20044;-58
2023/06/17 13:18:42;;;;;;;35.42;7.05;;;;;;;;;;5079605;28;20044;-57
2023/06/17 13:21:08;;;;;;;41.88;7.22;;;;;;;;;;5079209;28;20475;-60
2023/06/17 13:23:34;;;;;;;31.10;6.43;;;;;;;;;;5079276;28;20030;-59
2023/06/17 13:25:59;;;;;;;46.58;8.43;;;;;;;;;;5078390;28;20040;-58
2023/06/17 13:28:25;;;;;;;60.92;10.07;;;;;;;;;;5078761;28;20073;-58
2023/06/17 13:30:51;;;;;;;30.25;6.22;;;;;;;;;;5077113;28;20821;-58
2023/06/17 13:33:16;;;;;;;39.63;7.38;;;;;;;;;;5078434;28;20534;-60
2023/06/17 13:35:42;;;;;;;37.97;7.35;;;;;;;;;;5078822;28;20501;-57
2023/06/17 13:38:07;;;;;;;32.38;6.28;;;;;;;;;;5080288;28;20528;-59
2023/06/17 13:40:32;;;;;;;62.13;9.73;;;;;;;;;;5076382;28;20055;-58
2023/06/17 13:42:58;;;;;;;33.93;7.20;;;;;;;;;;5079963;28;20031;-59
2023/06/17 13:45:23;;;;;;;57.67;9.43;;;;;;;;;;5077208;28;20040;-56
2023/06/17 13:47:48;;;;;;;33.07;6.50;;;;;;;;;;5077519;28;20600;-58
2023/06/17 13:50:13;;;;;;;33.57;7.40;;;;;;;;;;5064828;28;20271;-57
2023/06/17 13:52:39;;;;;;;32.77;6.43;;;;;;;;;;5075334;28;20027;-57
2023/06/17 13:55:04;;;;;;;41.63;7.00;;;;;;;;;;5078801;28;20623;-57
2023/06/17 13:57:29;;;;;;;68.18;10.80;;;;;;;;;;5069750;28;20017;-60
2023/06/17 13:59:55;;;;;;;31.50;6.55;;;;;;;;;;5064216;28;20020;-57
2023/06/17 14:02:20;;;;;;;53.88;8.65;;;;;;;;;;5062607;28;20071;-57
2023/06/17 14:04:46;;;;;;;33.33;7.30;;;;;;;;;;5048420;28;20325;-59
2023/06/17 14:07:11;;;;;;;33.53;6.85;;;;;;;;;;5063001;28;20378;-58
2023/06/17 14:09:36;;;;;;;35.75;7.28;;;;;;;;;;5062316;28;20429;-56
2023/06/17 14:12:02;;;;;;;40.77;7.20;;;;;;;;;;5063831;28;20058;-55
2023/06/17 14:14:28;;;;;;;52.38;8.63;;;;;;;;;;5031534;28;20276;-55
2023/06/17 14:16:53;;;;;;;25.50;6.03;;;;;;;;;;5062025;28;20046;-56
2023/06/17 14:19:18;;;;;;;36.43;7.40;;;;;;;;;;5064611;28;20048;-56
2023/06/17 14:21:54;;;;;;;26.90;6.50;;;;;;;;;;5062754;28;20287;-59
2023/06/17 14:24:20;;;;;;;51.15;9.00;;;;;;;;;;5047192;28;20028;-59
2023/06/17 14:26:45;;;;;;;55.80;9.03;;;;;;;;;;5046500;28;20624;-59
2023/06/17 14:29:10;;;;;;;59.63;9.30;;;;;;;;;;5064196;28;20784;-59
2023/06/17 14:31:36;;;;;;;86.20;13.50;;;;;;;;;;5074113;28;20278;-57
2023/06/17 14:34:01;;;;;;;49.20;8.95;;;;;;;;;;5084515;28;20168;-58
2023/06/17 14:36:27;;;;;;;78.10;11.80;;;;;;;;;;5080906;28;20032;-60
2023/06/17 14:38:52;;;;;;;46.15;8.18;;;;;;;;;;5082962;28;20280;-58
2023/06/17 14:41:18;;;;;;;56.03;9.20;;;;;;;;;;5074986;28;20047;-58
2023/06/17 14:43:43;;;;;;;57.72;8.90;;;;;;;;;;5045715;28;20312;-59
2023/06/17 14:46:08;;;;;;;73.33;10.60;;;;;;;;;;5063473;28;20089;-58
2023/06/17 14:48:34;;;;;;;84.10;12.32;;;;;;;;;;5063252;28;20547;-60
2023/06/17 14:51:00;;;;;;;34.40;7.18;;;;;;;;;;5072306;28;20417;-60
2023/06/17 14:53:29;;;;;;;61.85;9.40;;;;;;;;;;5069020;28;20031;-60
2023/06/17 14:55:59;;;;;;;53.40;8.23;;;;;;;;;;5080638;28;20032;-60
2023/06/17 14:58:24;;;;;;;65.53;9.80;;;;;;;;;;5074372;28;20132;-61
2023/06/17 15:00:50;;;;;;;46.03;8.10;;;;;;;;;;5071791;28;20036;-58
2023/06/17 15:03:15;;;;;;;46.22;8.02;;;;;;;;;;5065446;28;20482;-57
2023/06/17 15:05:41;;;;;;;46.73;8.30;;;;;;;;;;5062831;28;20131;-59
2023/06/17 15:08:07;;;;;;;51.67;8.73;;;;;;;;;;5063370;28;20400;-57
2023/06/17 15:10:32;;;;;;;64.47;9.73;;;;;;;;;;5061274;28;20055;-59
2023/06/17 15:12:58;;;;;;;42.30;7.72;;;;;;;;;;5064978;28;20347;-59
2023/06/17 15:15:23;;;;;;;59.90;9.10;;;;;;;;;;5063344;28;20340;-60
2023/06/17 15:17:48;;;;;;;41.67;7.93;;;;;;;;;;5061659;28;20625;-58
2023/06/17 15:20:13;;;;;;;47.30;8.87;;;;;;;;;;5065262;28;21070;-60
2023/06/17 15:22:39;;;;;;;86.07;12.07;;;;;;;;;;5061111;28;20274;-58
2023/06/17 15:25:04;;;;;;;38.22;7.78;;;;;;;;;;5064730;28;20278;-59
2023/06/17 15:27:29;;;;;;;73.30;11.32;;;;;;;;;;5061461;28;20119;-58
2023/06/17 15:29:55;;;;;;;53.37;9.13;;;;;;;;;;5062592;28;20040;-59
2023/06/17 15:32:20;;;;;;;38.60;7.80;;;;;;;;;;5062196;28;20035;-59
2023/06/17 15:34:45;;;;;;;45.53;8.43;;;;;;;;;;5059793;28;20030;-59
2023/06/17 15:37:10;;;;;;;51.67;9.17;;;;;;;;;;5062810;28;20123;-57
2023/06/17 15:39:36;;;;;;;73.70;10.97;;;;;;;;;;5061687;28;20258;-58
2023/06/17 15:42:01;;;;;;;41.47;8.00;;;;;;;;;;5064265;28;20036;-56
2023/06/17 15:44:27;;;;;;;61.83;9.25;;;;;;;;;;5060701;28;20034;-57
2023/06/17 15:46:52;;;;;;;38.90;7.20;;;;;;;;;;5062527;28;20040;-58
2023/06/17 15:49:17;;;;;;;45.10;7.83;;;;;;;;;;5063625;28;20706;-59
2023/06/17 15:51:42;;;;;;;46.50;9.00;;;;;;;;;;5058794;28;20506;-59
2023/06/17 15:54:08;;;;;;;54.95;9.60;;;;;;;;;;5060150;28;20504;-58
2023/06/17 15:56:34;;;;;;;83.97;16.63;;;;;;;;;;5058290;28;20488;-58
2023/06/17 15:58:59;;;;;;;48.15;8.98;;;;;;;;;;5062310;28;20036;-58
2023/06/17 16:01:25;;;;;;;50.65;12.98;;;;;;;;;;5059410;28;20507;-55
2023/06/17 16:03:50;;;;;;;65.75;10.73;;;;;;;;;;5060173;28;20023;-56
2023/06/17 16:06:15;;;;;;;58.63;11.43;;;;;;;;;;5058937;28;20387;-56
2023/06/17 16:08:41;;;;;;;82.03;11.73;;;;;;;;;;5062011;28;20263;-57
2023/06/17 16:11:06;;;;;;;42.25;7.93;;;;;;;;;;5061521;28;20036;-56
2023/06/17 16:13:31;;;;;;;74.30;11.27;;;;;;;;;;5060775;28;20039;-55
2023/06/17 16:15:56;;;;;;;62.87;9.37;;;;;;;;;;5060187;28;20351;-54
2023/06/17 16:18:22;;;;;;;46.53;7.97;;;;;;;;;;5062312;28;20509;-57
2023/06/17 16:20:47;;;;;;;48.83;14.47;;;;;;;;;;5059820;28;20028;-54
2023/06/17 16:23:13;;;;;;;56.63;10.00;;;;;;;;;;5062962;28;20135;-57
2023/06/17 16:25:38;;;;;;;79.00;11.90;;;;;;;;;;5060313;28;20335;-57
2023/06/17 16:28:03;;;;;;;50.78;9.90;;;;;;;;;;5062141;28;20024;-55
2023/06/17 16:30:28;;;;;;;62.45;10.00;;;;;;;;;;5059833;28;20042;-59
2023/06/17 16:32:54;;;;;;;53.60;11.93;;;;;;;;;;5059098;28;20121;-57
2023/06/17 16:35:19;;;;;;;54.23;11.53;;;;;;;;;;5062349;28;20460;-57
2023/06/17 16:37:44;;;;;;;49.13;8.18;;;;;;;;;;5061414;28;20247;-58
2023/06/17 16:40:10;;;;;;;51.87;8.90;;;;;;;;;;5061620;28;20055;-59
2023/06/17 16:42:35;;;;;;;84.97;13.07;;;;;;;;;;5060678;28;20008;-58
2023/06/17 16:45:01;;;;;;;61.88;13.50;;;;;;;;;;5060622;28;20036;-56
2023/06/17 16:47:26;;;;;;;45.72;10.27;;;;;;;;;;5059711;28;20028;-57
2023/06/17 16:49:52;;;;;;;59.50;9.70;;;;;;;;;;5061413;28;20158;-58
2023/06/17 16:52:17;;;;;;;51.58;8.45;;;;;;;;;;5061105;28;20052;-59
2023/06/17 16:54:45;;;;;;;79.80;11.68;;;;;;;;;;5060298;28;20024;-60
2023/06/17 16:57:10;;;;;;;52.50;8.35;;;;;;;;;;5060976;28;20026;-60
2023/06/17 16:59:35;;;;;;;78.07;10.95;;;;;;;;;;5060246;28;21029;-58
2023/06/17 17:02:01;;;;;;;45.50;7.83;;;;;;;;;;5059684;28;20533;-58
2023/06/17 17:04:26;;;;;;;56.40;8.88;;;;;;;;;;5059633;28;20365;-59
2023/06/17 17:06:52;;;;;;;51.42;8.25;;;;;;;;;;5058684;28;20144;-58
2023/06/17 17:09:17;;;;;;;56.03;8.55;;;;;;;;;;5061847;28;20107;-57
2023/06/17 17:11:42;;;;;;;94.50;12.87;;;;;;;;;;5057936;28;20056;-58
2023/06/17 17:14:08;;;;;;;50.20;7.80;;;;;;;;;;5060905;28;20340;-58
2023/06/17 17:16:33;;;;;;;73.28;10.85;;;;;;;;;;5058301;28;20094;-57
2023/06/17 17:18:58;;;;;;;53.30;8.63;;;;;;;;;;5061310;28;20482;-57
2023/06/17 17:21:24;;;;;;;60.75;9.25;;;;;;;;;;5059458;28;20122;-56
2023/06/17 17:23:49;;;;;;;64.75;9.55;;;;;;;;;;5059618;28;20513;-58
2023/06/17 17:26:15;;;;;;;69.77;10.13;;;;;;;;;;5059552;28;20178;-55
2023/06/17 17:28:40;;;;;;;84.17;12.00;;;;;;;;;;5059620;28;20269;-55
2023/06/17 17:31:05;;;;;;;59.78;9.38;;;;;;;;;;5061850;28;20044;-57
2023/06/17 17:33:32;;;;;;;67.00;11.27;;;;;;;;;;5063503;28;20131;-60
2023/06/17 17:35:57;;;;;;;69.88;11.50;;;;;;;;;;5062639;28;20517;-59
2023/06/17 17:38:23;;;;;;;52.75;9.15;;;;;;;;;;5066621;28;20028;-58
2023/06/17 17:40:48;;;;;;;79.90;10.55;;;;;;;;;;5063601;28;20043;-58
2023/06/17 17:43:14;;;;;;;50.60;8.03;;;;;;;;;;5065644;28;20283;-60
2023/06/17 17:45:39;;;;;;;72.90;10.05;;;;;;;;;;5062208;28;20404;-60
2023/06/17 17:48:04;;;;;;;63.70;9.23;;;;;;;;;;5063260;28;20033;-61
2023/06/17 17:50:30;;;;;;;43.33;7.00;;;;;;;;;;5068188;28;20822;-59
2023/06/17 17:52:55;;;;;;;46.03;8.15;;;;;;;;;;5084391;28;20016;-60
2023/06/17 17:55:20;;;;;;;54.20;8.80;;;;;;;;;;5083683;28;20039;-63
2023/06/17 17:57:45;;;;;;;73.20;10.27;;;;;;;;;;5081046;28;20031;-59
2023/06/17 18:00:12;;;;;;;41.37;6.87;;;;;;;;;;5086094;28;20092;-59
2023/06/17 18:02:37;;;;;;;93.57;12.98;;;;;;;;;;5083447;28;20465;-61
2023/06/17 18:05:02;;;;;;;57.83;8.73;;;;;;;;;;5084091;28;20424;-60
2023/06/17 18:07:28;;;;;;;53.30;8.50;;;;;;;;;;5083788;28;20409;-58
2023/06/17 18:09:53;;;;;;;55.72;8.38;;;;;;;;;;5084326;28;20040;-60
2023/06/17 18:12:18;;;;;;;57.20;8.87;;;;;;;;;;5065508;28;20534;-60
2023/06/17 18:14:43;;;;;;;81.32;10.77;;;;;;;;;;5062241;28;20357;-60
2023/06/17 18:17:09;;;;;;;57.20;8.77;;;;;;;;;;5064577;28;20052;-59
2023/06/17 18:19:34;;;;;;;66.93;9.88;;;;;;;;;;5064206;28;20327;-59
2023/06/17 18:21:59;;;;;;;48.20;8.53;;;;;;;;;;5064768;28;20119;-58
2023/06/17 18:24:25;;;;;;;56.97;8.90;;;;;;;;;;5066390;28;20254;-59
2023/06/17 18:26:50;;;;;;;81.00;11.63;;;;;;;;;;5063146;28;20040;-59
2023/06/17 18:29:15;;;;;;;58.53;8.68;;;;;;;;;;5065237;28;21159;-60
2023/06/17 18:31:41;;;;;;;81.77;11.33;;;;;;;;;;5062446;28;20055;-60
2023/06/17 18:34:06;;;;;;;51.65;8.30;;;;;;;;;;5065674;28;20701;-59
2023/06/17 18:36:32;;;;;;;45.38;7.53;;;;;;;;;;5062651;28;20541;-58
2023/06/17 18:38:57;;;;;;;60.97;8.82;;;;;;;;;;5062814;28;20050;-57
2023/06/17 18:41:22;;;;;;;55.63;8.98;;;;;;;;;;5063924;28;20059;-57
2023/06/17 18:43:47;;;;;;;115.37;14.27;;;;;;;;;;5061872;28;20386;-58
2023/06/17 18:46:13;;;;;;;55.77;8.20;;;;;;;;;;5061637;28;20041;-59
2023/06/17 18:48:38;;;;;;;96.10;12.60;;;;;;;;;;5063340;28;20031;-58
2023/06/17 18:51:04;;;;;;;54.60;8.63;;;;;;;;;;5062285;28;20328;-57
2023/06/17 18:53:29;;;;;;;49.58;7.82;;;;;;;;;;5062128;28;20117;-56
2023/06/17 18:55:55;;;;;;;69.87;9.77;;;;;;;;;;5043183;28;20040;-56
2023/06/17 18:58:20;;;;;;;60.05;8.65;;;;;;;;;;5064112;28;20099;-58
2023/06/17 19:00:45;;;;;;;97.40;12.43;;;;;;;;;;5061696;28;20017;-56
2023/06/17 19:03:10;;;;;;;50.63;8.23;;;;;;;;;;5063201;28;20445;-57
2023/06/17 19:05:38;;;;;;;58.77;8.63;;;;;;;;;;5061228;28;20450;-57
2023/06/17 19:08:04;;;;;;;62.28;8.65;;;;;;;;;;5062857;28;20766;-58
2023/06/17 19:10:29;;;;;;;60.97;8.93;;;;;;;;;;5062417;28;20028;-58
2023/06/17 19:12:54;;;;;;;63.88;9.65;;;;;;;;;;5062928;28;22299;-58
2023/06/17 19:15:20;;;;;;;53.27;8.37;;;;;;;;;;5063711;28;20105;-59
2023/06/17 19:17:45;;;;;;;89.20;12.13;;;;;;;;;;5061174;28;20237;-59
2023/06/17 19:20:11;;;;;;;70.72;11.05;;;;;;;;;;5063764;28;20587;-59
2023/06/17 19:22:37;;;;;;;63.92;9.93;;;;;;;;;;5060772;28;20128;-58
2023/06/17 19:25:04;;;;;;;62.22;10.50;;;;;;;;;;5064413;28;20872;-58
2023/06/17 19:27:29;;;;;;;57.40;10.20;;;;;;;;;;5046113;28;20059;-59
2023/06/17 19:30:01;;;;;;;89.78;13.40;;;;;;;;;;5046710;28;20573;-59
2023/06/17 19:32:27;;;;;;;63.95;10.35;;;;;;;;;;5061217;28;20022;-60
2023/06/17 19:34:56;;;;;;;102.43;14.07;;;;;;;;;;5062144;28;20757;-61
2023/06/17 19:37:28;;;;;;;48.95;8.88;;;;;;;;;;5063619;28;20375;-60
2023/06/17 19:39:53;;;;;;;;;;;;;;;;;;5062440;28;20450;-59
2023/06/17 19:42:18;;;;;;;50.83;9.00;;;;;;;;;;5061903;28;19938;-56
2023/06/17 19:44:44;;;;;;;81.60;12.55;;;;;;;;;;5060274;28;20115;-57
2023/06/17 19:47:09;;;;;;;47.75;9.60;;;;;;;;;;5061453;28;20036;-57
2023/06/17 19:49:35;;;;;;;45.08;9.82;;;;;;;;;;5044557;28;20021;-58
2023/06/17 19:52:00;;;;;;;46.08;9.60;;;;;;;;;;5061902;28;20040;-59
2023/06/17 19:54:27;;;;;;;49.47;10.77;;;;;;;;;;5061541;28;20020;-57
2023/06/17 19:56:52;;;;;;;86.63;14.45;;;;;;;;;;5060839;28;20036;-56
2023/06/17 19:59:17;;;;;;;46.85;10.30;;;;;;;;;;5064025;28;20024;-59
2023/06/17 20:01:42;;;;;;;85.33;14.07;;;;;;;;;;5059510;28;20137;-56
2023/06/17 20:04:08;;;;;;;51.07;9.13;;;;;;;;;;5062667;28;20028;-57
2023/06/17 20:06:33;;;;;;;50.40;9.70;;;;;;;;;;5061365;28;20290;-58
2023/06/17 20:08:58;;;;;;;52.47;9.70;;;;;;;;;;5046134;28;20281;-57
2023/06/17 20:11:25;;;;;;;50.43;9.67;;;;;;;;;;5062086;28;20036;-58
2023/06/17 20:13:51;;;;;;;87.43;13.55;;;;;;;;;;5064006;28;20521;-59
2023/06/17 20:16:16;;;;;;;65.82;11.65;;;;;;;;;;5059352;28;20043;-58
2023/06/17 20:18:41;;;;;;;56.30;10.70;;;;;;;;;;5061146;28;20451;-59
2023/06/17 20:21:06;;;;;;;48.07;9.57;;;;;;;;;;5063027;28;20046;-56
2023/06/17 20:23:31;;;;;;;51.63;10.93;;;;;;;;;;5061503;28;20022;-57
2023/06/17 20:25:57;;;;;;;109.03;15.73;;;;;;;;;;5059495;28;20283;-58
2023/06/17 20:28:22;;;;;;;45.90;9.52;;;;;;;;;;5063473;28;20866;-56
2023/06/17 20:30:47;;;;;;;93.67;14.07;;;;;;;;;;5057991;28;20525;-57
2023/06/17 20:33:12;;;;;;;50.23;9.70;;;;;;;;;;5060998;28;20332;-57
2023/06/17 20:35:38;;;;;;;50.40;10.30;;;;;;;;;;5060255;28;20357;-58
2023/06/17 20:38:03;;;;;;;54.13;10.73;;;;;;;;;;5061719;28;20458;-56
2023/06/17 20:40:28;;;;;;;52.45;9.95;;;;;;;;;;5060575;28;20315;-59
2023/06/17 20:42:53;;;;;;;75.87;12.00;;;;;;;;;;5063408;28;20884;-58
2023/06/17 20:45:19;;;;;;;50.20;10.23;;;;;;;;;;5060750;28;20288;-57
2023/06/17 20:47:44;;;;;;;70.90;12.10;;;;;;;;;;5058400;28;20775;-58
2023/06/17 20:50:11;;;;;;;48.03;11.15;;;;;;;;;;5062219;28;20505;-59
2023/06/17 20:52:36;;;;;;;62.22;12.68;;;;;;;;;;5061765;28;20078;-56
2023/06/17 20:55:01;;;;;;;59.80;11.50;;;;;;;;;;5061557;28;20028;-56
2023/06/17 20:57:27;;;;;;;53.97;11.17;;;;;;;;;;5059404;28;20316;-55
2023/06/17 20:59:52;;;;;;;92.53;14.33;;;;;;;;;;5060229;28;20381;-57
2023/06/17 21:02:18;;;;;;;54.13;10.68;;;;;;;;;;5060108;28;20362;-56
2023/06/17 21:04:43;;;;;;;54.33;11.30;;;;;;;;;;5059891;28;20521;-57
2023/06/17 21:07:09;;;;;;;66.50;12.25;;;;;;;;;;5062672;28;20032;-58
2023/06/17 21:09:34;;;;;;;49.30;10.70;;;;;;;;;;5066408;28;20020;-56
2023/06/17 21:11:59;;;;;;;74.43;12.75;;;;;;;;;;5062573;28;20032;-56
2023/06/17 21:14:25;;;;;;;54.75;10.63;;;;;;;;;;5063370;28;20952;-55
2023/06/17 21:16:52;;;;;;;97.15;15.32;;;;;;;;;;5063602;28;20086;-57
2023/06/17 21:19:17;;;;;;;56.90;11.32;;;;;;;;;;5065251;28;20081;-57
2023/06/17 21:21:42;;;;;;;70.57;12.77;;;;;;;;;;5066417;28;20037;-57
2023/06/17 21:24:08;;;;;;;48.72;10.93;;;;;;;;;;5064988;28;20017;-57
2023/06/17 21:26:33;;;;;;;50.20;10.85;;;;;;;;;;5064180;28;20031;-56
2023/06/17 21:28:58;;;;;;;79.83;13.43;;;;;;;;;;5065732;28;20012;-58
2023/06/17 21:31:23;;;;;;;53.30;11.67;;;;;;;;;;5066177;28;20033;-57
2023/06/17 21:33:50;;;;;;;99.13;14.40;;;;;;;;;;5063938;28;20280;-57
2023/06/17 21:36:15;;;;;;;64.90;12.27;;;;;;;;;;5063852;28;20490;-57
2023/06/17 21:38:40;;;;;;;62.20;12.15;;;;;;;;;;5065606;28;20710;-57
2023/06/17 21:41:05;;;;;;;50.22;11.27;;;;;;;;;;5054792;28;20065;-56
2023/06/17 21:43:32;;;;;;;69.75;12.70;;;;;;;;;;5083416;28;20591;-56
2023/06/17 21:45:58;;;;;;;125.85;16.98;;;;;;;;;;5083581;28;20040;-58
2023/06/17 21:48:23;;;;;;;49.33;10.73;;;;;;;;;;5086375;28;20289;-58
2023/06/17 21:50:48;;;;;;;83.33;13.83;;;;;;;;;;5083616;28;20024;-57
2023/06/17 21:53:13;;;;;;;58.37;11.90;;;;;;;;;;5086346;28;20266;-58
2023/06/17 21:55:39;;;;;;;62.50;11.43;;;;;;;;;;5084655;28;20285;-58
2023/06/17 21:58:04;;;;;;;58.30;11.73;;;;;;;;;;5081785;28;20048;-56
2023/06/17 22:00:29;;;;;;;53.05;11.27;;;;;;;;;;5086560;28;20254;-58
2023/06/17 22:02:54;;;;;;;75.97;13.07;;;;;;;;;;5083337;28;20031;-59
2023/06/17 22:05:20;;;;;;;51.25;10.98;;;;;;;;;;5082597;28;20039;-59
2023/06/17 22:07:45;;;;;;;54.93;11.70;;;;;;;;;;5082534;28;20020;-58
2023/06/17 22:10:10;;;;;;;59.67;11.50;;;;;;;;;;5084672;28;20671;-58
2023/06/17 22:12:35;;;;;;;65.88;13.63;;;;;;;;;;5084706;28;20255;-58
2023/06/17 22:15:01;;;;;;;94.07;15.03;;;;;;;;;;5082605;28;20323;-58
2023/06/17 22:17:26;;;;;;;60.33;11.60;;;;;;;;;;5062062;28;20263;-58
2023/06/17 22:19:51;;;;;;;101.10;14.90;;;;;;;;;;5064234;28;20017;-58
2023/06/17 22:22:16;;;;;;;47.33;10.57;;;;;;;;;;5064490;28;20990;-58
2023/06/17 22:24:42;;;;;;;61.83;11.57;;;;;;;;;;5063517;28;20024;-60
2023/06/17 22:27:09;;;;;;;55.43;11.43;;;;;;;;;;5062085;28;20620;-58
2023/06/17 22:29:35;;;;;;;53.20;10.63;;;;;;;;;;5064602;28;20357;-56
2023/06/17 22:32:00;;;;;;;92.38;14.30;;;;;;;;;;5062446;28;20455;-56
2023/06/17 22:34:26;;;;;;;49.93;10.63;;;;;;;;;;5063078;28;20258;-57
2023/06/17 22:36:51;;;;;;;81.83;13.83;;;;;;;;;;5063141;28;20271;-57
2023/06/17 22:39:16;;;;;;;42.50;10.17;;;;;;;;;;5064366;28;20282;-58
2023/06/17 22:41:41;;;;;;;64.47;11.23;;;;;;;;;;5077553;28;20302;-57
2023/06/17 22:44:07;;;;;;;58.60;11.13;;;;;;;;;;5082689;28;20342;-57
2023/06/17 22:46:32;;;;;;;56.65;11.13;;;;;;;;;;5081868;27;20382;-56
2023/06/17 22:48:57;;;;;;;104.85;15.82;;;;;;;;;;5082680;28;20453;-57
2023/06/17 22:51:23;;;;;;;62.35;11.25;;;;;;;;;;5083605;28;20133;-57
2023/06/17 22:53:49;;;;;;;73.43;12.82;;;;;;;;;;5083548;28;20413;-56
2023/06/17 22:56:14;;;;;;;62.60;11.43;;;;;;;;;;5072730;28;20040;-58
2023/06/17 22:58:39;;;;;;;68.78;12.25;;;;;;;;;;5064343;28;20020;-58
2023/06/17 23:01:04;;;;;;;109.90;15.05;;;;;;;;;;5060454;28;20436;-58
2023/06/17 23:03:30;;;;;;;73.53;12.48;;;;;;;;;;5060746;28;20195;-58
2023/06/17 23:05:55;;;;;;;122.27;16.53;;;;;;;;;;5059548;28;20700;-59
2023/06/17 23:08:20;;;;;;;70.57;12.33;;;;;;;;;;5063766;28;21127;-59
2023/06/17 23:10:45;;;;;;;76.50;12.23;;;;;;;;;;5045213;28;20287;-61
2023/06/17 23:13:11;;;;;;;72.45;12.20;;;;;;;;;;5063487;28;20097;-60
2023/06/17 23:15:37;;;;;;;69.37;12.27;;;;;;;;;;5064014;28;20120;-60
2023/06/17 23:18:02;;;;;;;112.70;14.57;;;;;;;;;;5060583;28;20259;-57
2023/06/17 23:20:27;;;;;;;79.90;12.82;;;;;;;;;;5064229;28;20047;-61
2023/06/17 23:22:53;;;;;;;73.07;12.23;;;;;;;;;;5063060;28;20008;-57
2023/06/17 23:25:19;;;;;;;79.50;13.00;;;;;;;;;;5060653;28;20270;-56
2023/06/17 23:27:48;;;;;;;78.53;12.38;;;;;;;;;;5063513;28;20394;-57
2023/06/17 23:30:13;;;;;;;61.38;11.77;;;;;;;;;;5061296;28;20441;-56
2023/06/17 23:32:39;;;;;;;65.97;12.73;;;;;;;;;;5065235;28;20195;-56
2023/06/17 23:35:05;;;;;;;91.60;14.18;;;;;;;;;;5060661;28;20020;-58
2023/06/17 23:37:31;;;;;;;62.15;11.35;;;;;;;;;;5062162;28;20370;-59
2023/06/17 23:39:56;;;;;;;90.35;14.38;;;;;;;;;;5061848;28;20110;-57
2023/06/17 23:42:22;;;;;;;56.33;11.35;;;;;;;;;;5063070;28;20089;-57
2023/06/17 23:44:48;;;;;;;49.03;11.18;;;;;;;;;;5062146;28;20497;-55
2023/06/17 23:47:17;;;;;;;64.68;12.10;;;;;;;;;;5060157;28;20769;-57
2023/06/17 23:49:42;;;;;;;60.17;11.32;;;;;;;;;;5065908;28;20032;-55
2023/06/17 23:52:09;;;;;;;73.65;11.90;;;;;;;;;;5061727;28;20035;-56
2023/06/17 23:54:35;;;;;;;58.38;11.18;;;;;;;;;;5063020;28;20880;-57
2023/06/17 23:57:00;;;;;;;76.03;12.20;;;;;;;;;;5060074;28;20031;-57
2023/06/17 23:59:26;;;;;;;56.78;11.40;;;;;;;;;;5064444;28;20040;-58
